Time;durP1;ratioP1;P1;durP2;ratioP2;P2;SDS_P1;SDS_P2;PMS_P1;PMS_P2;Temp;Humidity;BMP_temperature;BMP_pressure;BME280_temperature;BME280_humidity;BME280_pressure;Samples;Min_cycle;Max_cycle;Signal;HPM_P1;HPM_P2
2022/09/23 00:00:09;;;;;;;;;;;;;;;18.13;63.79;101470.25;1016837;29;683;-71
2022/09/23 00:00:59;;;;;;;;;;;;;;;18.13;63.33;101470.25;1016806;29;714;-72
2022/09/23 00:01:50;;;;;;;;;;;;;;;18.12;63.70;101471.22;1016828;29;643;-72
2022/09/23 00:02:41;;;;;;;;;;;;;;;18.12;63.71;101468.53;1016795;29;643;-71
2022/09/23 00:03:32;;;;;;;;;;;;;;;18.11;62.94;101465.97;1016774;29;651;-71
2022/09/23 00:04:22;;;;;;;;;;;;;;;18.11;62.94;101469.50;1016854;29;690;-71
2022/09/23 00:05:13;;;;;;;;;;;;;;;18.11;62.93;101466.81;1017225;29;753;-71
2022/09/23 00:06:03;;;;;;;;;;;;;;;18.11;63.64;101466.81;1016203;29;1935;-72
2022/09/23 00:06:53;;;;;;;;;;;;;;;18.10;62.80;101475.91;1016786;29;725;-71
2022/09/23 00:07:44;;;;;;;;;;;;;;;18.08;63.12;101469.81;1016800;29;643;-71
2022/09/23 00:08:34;;;;;;;;;;;;;;;18.09;63.33;101468.81;1016827;29;603;-71
2022/09/23 00:09:25;;;;;;;;;;;;;;;18.10;63.82;101473.19;1016642;29;678;-72
2022/09/23 00:10:15;;;;;;;;;;;;;;;18.10;63.74;101475.03;1016780;29;674;-72
2022/09/23 00:11:06;;;;;;;;;;;;;;;18.07;63.70;101468.09;1016633;29;635;-70
2022/09/23 00:11:57;;;;;;;;;;;;;;;18.05;63.85;101464.69;1017239;29;1424;-70
2022/09/23 00:12:47;;;;;;;;;;;;;;;18.04;62.99;101461.13;1020606;29;710;-72
2022/09/23 00:13:37;;;;;;;;;;;;;;;18.03;63.85;101467.50;1020476;29;639;-71
2022/09/23 00:14:28;;;;;;;;;;;;;;;18.03;62.93;101469.34;1020633;29;686;-72
2022/09/23 00:15:18;;;;;;;;;;;;;;;18.03;63.69;101464.81;1020114;29;753;-72
2022/09/23 00:16:09;;;;;;;;;;;;;;;18.01;63.58;101469.47;1021137;29;659;-72
2022/09/23 00:16:59;;;;;;;;;;;;;;;18.01;63.54;101466.78;1021228;29;686;-70
2022/09/23 00:17:50;;;;;;;;;;;;;;;18.02;62.88;101462.25;1020589;29;647;-72
2022/09/23 00:18:40;;;;;;;;;;;;;;;18.01;63.09;101471.31;1020645;29;671;-71
2022/09/23 00:19:31;;;;;;;;;;;;;;;18.02;63.75;101467.63;1020496;29;651;-71
2022/09/23 00:20:21;;;;;;;;;;;;;;;18.00;63.95;101469.59;1020616;29;636;-71
2022/09/23 00:21:12;;;;;;;;;;;;;;;18.01;63.45;101463.22;1020592;29;639;-70
2022/09/23 00:22:02;;;;;;;;;;;;;;;18.01;63.53;101463.22;1020754;29;734;-70
2022/09/23 00:22:53;;;;;;;;;;;;;;;18.01;63.73;101461.38;1020593;29;710;-70
2022/09/23 00:23:43;;;;;;;;;;;;;;;18.01;63.24;101463.22;1020596;29;631;-70
2022/09/23 00:24:33;;;;;;;;;;;;;;;17.99;63.45;101468.75;1019912;29;634;-70
2022/09/23 00:25:24;;;;;;;;;;;;;;;17.98;63.85;101458.94;1019999;29;639;-70
2022/09/23 00:26:15;;;;;;;;;;;;;;;17.96;63.63;101460.91;1020498;29;1899;-70
2022/09/23 00:27:05;;;;;;;;;;;;;;;17.97;64.10;101464.47;1017208;29;655;-70
2022/09/23 00:27:56;;;;;;;;;;;;;;;17.95;63.57;101453.81;1016013;29;631;-70
2022/09/23 00:28:46;;;;;;;;;;;;;;;17.95;63.84;101455.66;1017198;29;659;-70
2022/09/23 00:29:36;;;;;;;;;;;;;;;17.96;63.82;101460.91;1017194;29;643;-72
2022/09/23 00:30:27;;;;;;;;;;;;;;;17.97;63.94;101459.06;1017185;29;615;-71
2022/09/23 00:31:17;;;;;;;;;;;;;;;17.94;63.82;101453.94;1017202;29;694;-70
2022/09/23 00:32:08;;;;;;;;;;;;;;;17.94;63.43;101453.94;1017120;29;607;-70
2022/09/23 00:32:58;;;;;;;;;;;;;;;17.95;64.02;101455.66;1017155;29;663;-70
2022/09/23 00:33:48;;;;;;;;;;;;;;;17.94;63.30;101445.84;1016616;29;907;-70
2022/09/23 00:34:39;;;;;;;;;;;;;;;17.94;63.72;101451.25;1017250;29;655;-70
2022/09/23 00:35:29;;;;;;;;;;;;;;;17.95;63.18;101452.94;1016947;29;1187;-71
2022/09/23 00:36:20;;;;;;;;;;;;;;;17.93;63.20;101449.53;1015953;29;633;-70
2022/09/23 00:37:10;;;;;;;;;;;;;;;17.92;64.30;101447.81;1016691;29;675;-71
2022/09/23 00:38:01;;;;;;;;;;;;;;;17.91;63.84;101456.94;1015981;29;711;-71
2022/09/23 00:38:51;;;;;;;;;;;;;;;17.89;63.77;101446.28;1016625;29;588;-70
2022/09/23 00:39:44;;;;;;;;;;;;;;;17.90;63.44;101449.81;1016646;29;667;-70
2022/09/23 00:40:35;;;;;;;;;;;;;;;17.88;63.51;101441.00;1020212;29;659;-70
2022/09/23 00:41:25;;;;;;;;;;;;;;;17.89;63.26;101438.19;1020333;29;721;-71
2022/09/23 00:42:16;;;;;;;;;;;;;;;17.88;63.42;101438.31;1016899;29;710;-71
2022/09/23 00:43:06;;;;;;;;;;;;;;;17.89;63.76;101440.88;1017410;29;579;-72
2022/09/23 00:43:57;;;;;;;;;;;;;;;17.88;63.31;101441.88;1017163;29;714;-70
2022/09/23 00:44:47;;;;;;;;;;;;;;;17.87;63.71;101442.00;1015584;29;750;-71
2022/09/23 00:45:38;;;;;;;;;;;;;;;17.88;63.70;101444.56;1020765;29;741;-71
2022/09/23 00:46:28;;;;;;;;;;;;;;;17.86;64.30;101438.44;1019663;29;647;-71
2022/09/23 00:47:19;;;;;;;;;;;;;;;17.86;63.77;101430.34;1021217;29;663;-71
2022/09/23 00:48:09;;;;;;;;;;;;;;;17.86;63.72;101435.75;1019978;29;710;-71
2022/09/23 00:48:59;;;;;;;;;;;;;;;17.86;63.40;101427.66;1020032;29;663;-70
2022/09/23 00:49:50;;;;;;;;;;;;;;;17.87;63.87;101439.28;1019478;29;702;-71
2022/09/23 00:50:41;;;;;;;;;;;;;;;17.86;64.20;101429.50;1019958;29;746;-71
2022/09/23 00:51:32;;;;;;;;;;;;;;;17.86;64.07;101429.50;1019896;29;683;-71
2022/09/23 00:52:22;;;;;;;;;;;;;;;17.85;63.46;101435.88;1020023;29;612;-71
2022/09/23 00:53:13;;;;;;;;;;;;;;;17.85;63.32;101431.34;1019814;29;634;-71
2022/09/23 00:54:04;;;;;;;;;;;;;;;17.84;64.51;101437.72;1020038;29;749;-69
2022/09/23 00:54:54;;;;;;;;;;;;;;;17.85;64.13;101431.34;1019980;29;694;-71
2022/09/23 00:55:45;;;;;;;;;;;;;;;17.85;63.78;101438.56;1016014;29;631;-72
2022/09/23 00:56:35;;;;;;;;;;;;;;;17.84;63.94;101431.47;1015949;29;1361;-70
2022/09/23 00:57:26;;;;;;;;;;;;;;;17.83;63.68;101436.00;1018420;29;1385;-70
2022/09/23 00:58:16;;;;;;;;;;;;;;;17.83;63.98;101433.31;1020495;29;619;-71
2022/09/23 00:59:08;;;;;;;;;;;;;;;17.84;64.05;101431.47;1020372;29;777;-71
2022/09/23 00:59:58;;;;;;;;;;;;;;;17.84;63.79;101431.47;1016721;29;722;-71
2022/09/23 01:00:48;;;;;;;;;;;;;;;17.83;64.41;101429.75;1016365;29;719;-71
2022/09/23 01:01:39;;;;;;;;;;;;;;;17.83;64.23;101435.16;1019898;29;675;-71
2022/09/23 01:02:30;;;;;;;;;;;;;;;17.85;63.60;101433.19;1020554;29;652;-71
2022/09/23 01:03:21;;;;;;;;;;;;;;;17.81;63.72;101431.72;1020406;29;670;-71
2022/09/23 01:04:13;;;;;;;;;;;;;;;17.82;63.94;101434.28;1019915;29;643;-71
2022/09/23 01:05:04;;;;;;;;;;;;;;;17.83;63.64;101435.16;1020322;29;647;-71
2022/09/23 01:05:54;;;;;;;;;;;;;;;17.81;63.55;101437.97;1020369;29;2032;-71
2022/09/23 01:06:45;;;;;;;;;;;;;;;17.81;63.91;101434.41;1020558;29;635;-71
2022/09/23 01:07:35;;;;;;;;;;;;;;;17.79;63.88;101439.09;1020481;29;643;-71
2022/09/23 01:08:25;;;;;;;;;;;;;;;17.79;64.33;101434.53;1020544;29;643;-71
2022/09/23 01:09:16;;;;;;;;;;;;;;;17.79;64.15;101433.69;1020354;29;615;-70
2022/09/23 01:10:06;;;;;;;;;;;;;;;17.78;64.58;101427.44;1020291;29;1325;-71
2022/09/23 01:10:57;;;;;;;;;;;;;;;17.77;64.61;101425.72;1019785;29;639;-70
2022/09/23 01:11:47;;;;;;;;;;;;;;;17.76;64.23;101426.72;1020391;29;986;-71
2022/09/23 01:12:38;;;;;;;;;;;;;;;17.75;64.54;101427.69;1020456;29;781;-70
2022/09/23 01:13:28;;;;;;;;;;;;;;;17.75;64.27;101432.25;1020412;29;630;-71
2022/09/23 01:14:19;;;;;;;;;;;;;;;17.75;63.85;101427.69;1020530;29;563;-71
2022/09/23 01:15:09;;;;;;;;;;;;;;;17.76;64.54;101428.56;1019926;29;635;-71
2022/09/23 01:15:59;;;;;;;;;;;;;;;17.75;64.24;101426.84;1020436;29;671;-71
2022/09/23 01:16:50;;;;;;;;;;;;;;;17.74;64.30;101431.38;1020491;29;608;-71
2022/09/23 01:17:40;;;;;;;;;;;;;;;17.75;64.09;101425.00;1016710;29;690;-71
2022/09/23 01:18:31;;;;;;;;;;;;;;;17.75;64.36;101433.09;1017055;29;694;-71
2022/09/23 01:19:22;;;;;;;;;;;;;;;17.78;64.43;101429.28;1020959;29;821;-71
2022/09/23 01:20:12;;;;;;;;;;;;;;;17.76;63.96;101426.72;1020368;29;651;-70
2022/09/23 01:21:03;;;;;;;;;;;;;;;17.75;64.00;101421.47;1019700;29;722;-70
2022/09/23 01:21:53;;;;;;;;;;;;;;;17.76;64.07;101424.03;1020395;29;722;-71
2022/09/23 01:22:43;;;;;;;;;;;;;;;17.74;64.32;101423.28;1020528;29;702;-71
2022/09/23 01:23:34;;;;;;;;;;;;;;;17.75;64.23;101421.47;1020398;29;659;-71
2022/09/23 01:24:25;;;;;;;;;;;;;;;17.73;64.64;101418.06;1019388;29;1195;-71
2022/09/23 01:25:15;;;;;;;;;;;;;;;17.74;64.03;101419.75;1020184;29;1368;-72
2022/09/23 01:26:05;;;;;;;;;;;;;;;17.69;64.86;101418.31;1020179;29;1899;-71
2022/09/23 01:26:56;;;;;;;;;;;;;;;17.72;64.47;101410.97;1020327;29;595;-71
2022/09/23 01:27:46;;;;;;;;;;;;;;;17.75;64.13;101421.47;1020484;29;706;-71
2022/09/23 01:28:37;;;;;;;;;;;;;;;17.73;63.90;101412.69;1020271;29;698;-71
2022/09/23 01:29:27;;;;;;;;;;;;;;;17.74;64.00;101419.75;1020412;29;651;-70
2022/09/23 01:30:18;;;;;;;;;;;;;;;17.73;63.83;101409.97;1020261;29;707;-70
2022/09/23 01:31:09;;;;;;;;;;;;;;;17.74;63.94;101408.97;1020350;29;707;-70
2022/09/23 01:32:01;;;;;;;;;;;;;;;17.71;63.62;101412.81;1019856;29;643;-71
2022/09/23 01:32:52;;;;;;;;;;;;;;;17.69;63.63;101412.94;1020404;29;698;-70
2022/09/23 01:33:42;;;;;;;;;;;;;;;17.72;64.12;101410.97;1020424;29;655;-70
2022/09/23 01:34:33;;;;;;;;;;;;;;;17.71;63.94;101407.41;1020417;29;627;-70
2022/09/23 01:35:23;;;;;;;;;;;;;;;17.69;63.85;101409.38;1020324;29;629;-70
2022/09/23 01:36:14;;;;;;;;;;;;;;;17.68;63.81;101411.22;1020142;29;1384;-70
2022/09/23 01:37:04;;;;;;;;;;;;;;;17.69;64.40;101409.38;1020410;29;682;-70
2022/09/23 01:37:55;;;;;;;;;;;;;;;17.69;64.37;101412.94;1020361;29;623;-69
2022/09/23 01:38:45;;;;;;;;;;;;;;;17.68;64.58;101410.38;1020386;29;686;-70
2022/09/23 01:39:36;;;;;;;;;;;;;;;17.69;64.19;101414.78;1021483;29;681;-70
2022/09/23 01:40:26;;;;;;;;;;;;;;;17.65;64.48;101411.47;1020368;29;763;-70
2022/09/23 01:41:17;;;;;;;;;;;;;;;17.70;64.26;101411.09;1020435;29;667;-71
2022/09/23 01:42:08;;;;;;;;;;;;;;;17.68;64.23;101402.28;1020376;29;678;-70
2022/09/23 01:42:58;;;;;;;;;;;;;;;17.64;64.52;101409.75;1020288;29;646;-70
2022/09/23 01:43:49;;;;;;;;;;;;;;;17.65;64.52;101399.84;1020450;29;663;-71
2022/09/23 01:44:41;;;;;;;;;;;;;;;17.65;64.20;101407.94;1020376;29;639;-71
2022/09/23 01:45:32;;;;;;;;;;;;;;;17.64;64.47;101404.38;1020363;29;639;-71
2022/09/23 01:46:26;;;;;;;;;;;;;;;17.65;64.68;101408.78;1019765;29;2011;-71
2022/09/23 01:47:17;;;;;;;;;;;;;;;17.65;64.19;101406.09;1020150;29;1175;-71
2022/09/23 01:48:09;;;;;;;;;;;;;;;17.64;64.19;101404.38;1020363;29;686;-70
2022/09/23 01:48:59;;;;;;;;;;;;;;;17.65;64.62;101406.09;1020180;29;1309;-70
2022/09/23 01:49:50;;;;;;;;;;;;;;;17.65;63.90;101400.69;1020397;29;819;-71
2022/09/23 01:50:56;;;;;;;;;;;;;;;17.69;64.45;101406.69;1020461;29;730;-71
2022/09/23 01:51:46;;;;;;;;;;;;;;;17.66;64.00;101410.50;1020473;29;729;-71
2022/09/23 01:52:37;;;;;;;;;;;;;;;17.64;64.38;101409.75;1020891;29;711;-71
2022/09/23 01:53:27;;;;;;;;;;;;;;;17.66;63.74;101406.94;1020342;29;658;-71
2022/09/23 01:54:18;;;;;;;;;;;;;;;17.62;64.62;101406.31;1020390;29;679;-71
2022/09/23 01:55:08;;;;;;;;;;;;;;;17.62;64.35;101400.91;1020326;29;643;-71
2022/09/23 01:55:59;;;;;;;;;;;;;;;17.63;64.62;101404.47;1016752;29;655;-71
2022/09/23 01:56:51;;;;;;;;;;;;;;;17.65;64.82;101399.84;1015914;29;1291;-71
2022/09/23 01:57:41;;;;;;;;;;;;;;;17.66;64.22;101397.03;1019796;29;632;-71
2022/09/23 01:58:32;;;;;;;;;;;;;;;17.62;64.76;101400.06;1020449;29;722;-71
2022/09/23 01:59:23;;;;;;;;;;;;;;;17.63;64.14;101408.03;1019729;29;1400;-71
2022/09/23 02:00:14;;;;;;;;;;;;;;;17.62;63.87;101391.97;1019934;29;675;-71
2022/09/23 02:01:05;;;;;;;;;;;;;;;17.61;64.66;101399.22;1020219;29;1357;-70
2022/09/23 02:01:56;;;;;;;;;;;;;;;17.62;64.15;101400.91;1020373;29;682;-71
2022/09/23 02:02:48;;;;;;;;;;;;;;;17.58;64.46;101399.47;1020370;29;703;-71
2022/09/23 02:03:38;;;;;;;;;;;;;;;17.58;64.88;101399.47;1020354;29;670;-71
2022/09/23 02:04:29;;;;;;;;;;;;;;;17.61;63.87;101401.06;1016653;29;667;-71
2022/09/23 02:05:20;;;;;;;;;;;;;;;17.60;64.23;101402.88;1016154;29;656;-71
2022/09/23 02:06:10;;;;;;;;;;;;;;;17.58;64.31;101390.53;1019710;29;1903;-71
2022/09/23 02:07:01;;;;;;;;;;;;;;;17.56;63.93;101395.19;1020484;29;710;-71
2022/09/23 02:07:51;;;;;;;;;;;;;;;17.58;64.51;101394.06;1020250;29;635;-70
2022/09/23 02:08:42;;;;;;;;;;;;;;;17.56;64.20;101385.25;1020349;29;628;-71
2022/09/23 02:09:32;;;;;;;;;;;;;;;17.58;63.85;101393.22;1020386;29;631;-71
2022/09/23 02:10:23;;;;;;;;;;;;;;;17.56;63.96;101393.34;1020448;29;640;-70
2022/09/23 02:11:17;;;;;;;;;;;;;;;17.56;64.89;101387.97;1020310;29;584;-71
2022/09/23 02:12:07;;;;;;;;;;;;;;;17.59;64.65;101386.84;1020266;29;694;-71
2022/09/23 02:12:58;;;;;;;;;;;;;;;17.56;63.74;101385.25;1020302;29;733;-71
2022/09/23 02:13:48;;;;;;;;;;;;;;;17.56;64.91;101385.25;1020303;29;1178;-70
2022/09/23 02:14:38;;;;;;;;;;;;;;;17.55;63.83;101383.59;1020517;29;634;-70
2022/09/23 02:15:29;;;;;;;;;;;;;;;17.53;63.89;101380.16;1020260;29;607;-70
2022/09/23 02:16:21;;;;;;;;;;;;;;;17.54;64.30;101384.56;1019741;29;683;-70
2022/09/23 02:17:11;;;;;;;;;;;;;;;17.55;63.96;101375.50;1019853;29;729;-72
2022/09/23 02:18:02;;;;;;;;;;;;;;;17.57;64.06;101375.34;1020325;29;647;-70
2022/09/23 02:18:53;;;;;;;;;;;;;;;17.61;63.95;101383.03;1021052;29;663;-71
2022/09/23 02:19:43;;;;;;;;;;;;;;;17.57;63.81;101378.88;1024647;29;626;-70
2022/09/23 02:20:33;;;;;;;;;;;;;;;17.59;64.09;101376.06;1025381;29;642;-70
2022/09/23 02:21:24;;;;;;;;;;;;;;;17.57;64.40;101378.03;1021094;29;710;-70
2022/09/23 02:22:14;;;;;;;;;;;;;;;17.55;64.53;101378.19;1021121;29;709;-70
2022/09/23 02:23:06;;;;;;;;;;;;;;;17.51;64.74;101376.75;1020998;29;647;-70
2022/09/23 02:23:58;;;;;;;;;;;;;;;17.53;64.43;101373.91;1020497;29;953;-71
2022/09/23 02:24:48;;;;;;;;;;;;;;;17.54;64.08;101373.78;1021475;29;726;-70
2022/09/23 02:25:38;;;;;;;;;;;;;;;17.54;64.33;101371.09;1021110;29;694;-70
2022/09/23 02:26:29;;;;;;;;;;;;;;;17.55;64.98;101378.19;1021547;29;694;-71
2022/09/23 02:27:19;;;;;;;;;;;;;;;17.50;64.59;101375.03;1020492;29;726;-71
2022/09/23 02:28:10;;;;;;;;;;;;;;;17.52;64.33;101369.50;1017025;29;623;-71
2022/09/23 02:29:00;;;;;;;;;;;;;;;17.52;64.53;101373.06;1017586;29;699;-71
2022/09/23 02:29:51;;;;;;;;;;;;;;;17.53;64.92;101371.22;1016539;29;808;-71
2022/09/23 02:30:41;;;;;;;;;;;;;;;17.49;65.01;101367.94;1016590;29;723;-71
2022/09/23 02:31:32;;;;;;;;;;;;;;;17.51;64.57;101365.09;1017618;29;752;-71
2022/09/23 02:32:22;;;;;;;;;;;;;;;17.52;64.51;101367.69;1016663;29;786;-70
2022/09/23 02:33:14;;;;;;;;;;;;;;;17.49;64.81;101367.94;1016380;29;638;-70
2022/09/23 02:34:04;;;;;;;;;;;;;;;17.50;64.26;101364.25;1016541;29;675;-71
2022/09/23 02:34:55;;;;;;;;;;;;;;;17.51;64.29;101365.97;1017513;29;650;-71
2022/09/23 02:35:45;;;;;;;;;;;;;;;17.52;64.21;101359.59;1017644;29;658;-71
2022/09/23 02:36:35;;;;;;;;;;;;;;;17.52;64.78;101367.69;1016595;29;654;-71
2022/09/23 02:37:26;;;;;;;;;;;;;;;17.51;64.00;101363.28;1016477;29;701;-71
2022/09/23 02:38:16;;;;;;;;;;;;;;;17.49;64.63;101359.84;1016559;29;733;-71
2022/09/23 02:39:07;;;;;;;;;;;;;;;17.49;64.40;101361.69;1017488;29;686;-71
2022/09/23 02:39:57;;;;;;;;;;;;;;;17.45;64.94;101361.09;1017554;29;703;-71
2022/09/23 02:40:49;;;;;;;;;;;;;;;17.45;64.03;101352.16;1017654;29;678;-71
2022/09/23 02:41:40;;;;;;;;;;;;;;;17.45;65.14;101352.16;1019724;29;1401;-71
2022/09/23 02:42:31;;;;;;;;;;;;;;;17.48;64.28;101355.44;1021075;29;647;-71
2022/09/23 02:43:22;;;;;;;;;;;;;;;17.45;64.81;101344.91;1017198;29;761;-71
2022/09/23 02:44:12;;;;;;;;;;;;;;;17.43;65.17;101346.03;1017838;29;665;-70
2022/09/23 02:45:03;;;;;;;;;;;;;;;17.46;64.34;101356.56;1021517;29;667;-71
2022/09/23 02:45:54;;;;;;;;;;;;;;;17.47;64.41;101351.03;1020456;29;659;-70
2022/09/23 02:46:45;;;;;;;;;;;;;;;17.46;64.12;101352.03;1018384;29;1326;-70
2022/09/23 02:47:35;;;;;;;;;;;;;;;17.49;64.03;101354.47;1020604;29;702;-70
2022/09/23 02:48:26;;;;;;;;;;;;;;;17.49;64.25;101346.38;1023897;29;714;-70
2022/09/23 02:49:16;;;;;;;;;;;;;;;17.46;64.48;101345.78;1024553;29;713;-70
2022/09/23 02:50:08;;;;;;;;;;;;;;;17.45;64.22;101344.91;1017290;29;690;-70
2022/09/23 02:51:01;;;;;;;;;;;;;;;17.44;64.22;101345.91;1016627;29;698;-69
2022/09/23 02:51:53;;;;;;;;;;;;;;;17.43;65.15;101346.88;1016915;29;718;-71
2022/09/23 02:52:45;;;;;;;;;;;;;;;17.41;64.81;101339.91;1016550;29;707;-70
2022/09/23 02:53:36;;;;;;;;;;;;;;;17.46;64.56;101343.09;1016922;29;710;-70
2022/09/23 02:54:26;;;;;;;;;;;;;;;17.41;65.02;101338.09;1017563;29;643;-69
2022/09/23 02:55:16;;;;;;;;;;;;;;;17.42;64.96;101338.94;1017027;29;1395;-71
2022/09/23 02:56:07;;;;;;;;;;;;;;;17.42;64.74;101339.78;1020751;29;749;-71
2022/09/23 02:56:57;;;;;;;;;;;;;;;17.40;64.77;101339.06;1020676;29;1113;-71
2022/09/23 02:57:48;;;;;;;;;;;;;;;17.38;64.83;101343.72;1020956;29;706;-72
2022/09/23 02:58:38;;;;;;;;;;;;;;;17.36;64.92;101340.34;1020318;29;627;-71
2022/09/23 02:59:29;;;;;;;;;;;;;;;17.38;65.13;101343.72;1020913;29;643;-72
2022/09/23 03:00:19;;;;;;;;;;;;;;;17.36;64.65;101345.72;1020276;29;686;-71
2022/09/23 03:01:10;;;;;;;;;;;;;;;17.37;64.44;101339.34;1020765;29;686;-72
2022/09/23 03:02:03;;;;;;;;;;;;;;;17.37;64.42;101339.34;1020807;29;642;-71
2022/09/23 03:02:54;;;;;;;;;;;;;;;17.36;64.46;101329.56;1020821;29;644;-71
2022/09/23 03:03:45;;;;;;;;;;;;;;;17.36;65.17;101337.63;1020744;29;710;-70
2022/09/23 03:04:37;;;;;;;;;;;;;;;17.37;64.95;101336.66;1017168;29;674;-70
2022/09/23 03:05:29;;;;;;;;;;;;;;;17.37;64.84;101338.50;1017768;29;627;-70
2022/09/23 03:06:19;;;;;;;;;;;;;;;17.35;65.27;101334.09;1021309;29;1903;-70
2022/09/23 03:07:09;;;;;;;;;;;;;;;17.37;64.58;101335.81;1020915;29;683;-70
2022/09/23 03:08:00;;;;;;;;;;;;;;;17.34;64.66;101337.78;1020197;29;632;-70
2022/09/23 03:08:52;;;;;;;;;;;;;;;17.31;64.99;101335.34;1020844;29;639;-70
2022/09/23 03:09:42;;;;;;;;;;;;;;;17.32;64.48;101337.03;1020723;29;1298;-70
2022/09/23 03:10:33;;;;;;;;;;;;;;;17.32;64.41;101338.88;1017436;29;650;-70
2022/09/23 03:11:23;;;;;;;;;;;;;;;17.33;64.59;101332.50;1016865;29;635;-70
2022/09/23 03:12:14;;;;;;;;;;;;;;;17.32;64.56;101333.50;1016519;29;699;-71
2022/09/23 03:13:04;;;;;;;;;;;;;;;17.32;64.56;101333.50;1017952;29;698;-70
2022/09/23 03:13:55;;;;;;;;;;;;;;;17.31;64.55;101339.88;1017445;29;722;-70
2022/09/23 03:14:48;;;;;;;;;;;;;;;17.30;64.67;101336.31;1016996;29;659;-70
2022/09/23 03:15:38;;;;;;;;;;;;;;;17.32;64.78;101330.81;1018020;29;703;-70
2022/09/23 03:16:29;;;;;;;;;;;;;;;17.33;64.63;101340.59;1017458;29;659;-71
2022/09/23 03:17:19;;;;;;;;;;;;;;;17.31;64.71;101337.19;1017463;29;687;-71
2022/09/23 03:18:10;;;;;;;;;;;;;;;17.30;64.56;101332.75;1017394;29;655;-70
2022/09/23 03:19:01;;;;;;;;;;;;;;;17.29;65.30;101340.00;1017875;29;583;-70
2022/09/23 03:19:51;;;;;;;;;;;;;;;17.30;64.93;101338.16;1017484;29;639;-70
2022/09/23 03:20:42;;;;;;;;;;;;;;;17.29;64.46;101333.75;1017354;29;562;-71
2022/09/23 03:21:33;;;;;;;;;;;;;;;17.28;64.73;101338.28;1018046;29;643;-70
2022/09/23 03:22:23;;;;;;;;;;;;;;;17.28;64.67;101334.72;1017409;29;788;-72
2022/09/23 03:23:14;;;;;;;;;;;;;;;17.28;64.86;101332.03;1017339;29;718;-72
2022/09/23 03:24:04;;;;;;;;;;;;;;;17.30;64.54;101324.69;1019046;29;1396;-72
2022/09/23 03:24:54;;;;;;;;;;;;;;;17.30;64.97;101335.47;1020360;29;654;-72
2022/09/23 03:25:46;;;;;;;;;;;;;;;17.31;64.15;101329.09;1020756;29;746;-72
2022/09/23 03:26:36;;;;;;;;;;;;;;;17.31;65.16;101337.19;1020704;29;632;-72
2022/09/23 03:27:27;;;;;;;;;;;;;;;17.31;64.34;101329.94;1020359;29;665;-72
2022/09/23 03:28:20;;;;;;;;;;;;;;;17.32;64.74;101325.41;1020086;29;692;-72
2022/09/23 03:29:11;;;;;;;;;;;;;;;17.32;64.22;101328.97;1020057;29;678;-72
2022/09/23 03:30:01;;;;;;;;;;;;;;;17.29;65.35;101331.06;1020720;29;764;-72
2022/09/23 03:30:52;;;;;;;;;;;;;;;17.29;65.11;101323.84;1020305;29;658;-72
2022/09/23 03:31:42;;;;;;;;;;;;;;;17.27;65.22;101331.19;1020727;29;679;-72
2022/09/23 03:32:32;;;;;;;;;;;;;;;17.29;65.33;101320.28;1020842;29;639;-70
2022/09/23 03:33:23;;;;;;;;;;;;;;;17.26;64.76;101317.84;1020743;29;694;-71
2022/09/23 03:34:13;;;;;;;;;;;;;;;17.23;64.76;101318.97;1020738;29;658;-71
2022/09/23 03:35:04;;;;;;;;;;;;;;;17.24;64.85;101315.28;1020757;29;659;-71
2022/09/23 03:37:06;;;;;;;;;;;;;;;17.26;65.08;101307.06;1020829;29;635;-69
2022/09/23 03:37:56;;;;;;;;;;;;;;;17.26;64.80;101316.00;1020662;29;686;-69
2022/09/23 03:38:49;;;;;;;;;;;;;;;17.25;64.75;101310.75;1017386;29;650;-70
2022/09/23 03:39:40;;;;;;;;;;;;;;;17.28;64.68;101321.25;1017333;29;693;-70
2022/09/23 03:40:30;;;;;;;;;;;;;;;17.29;64.94;101314.91;1017372;29;635;-70
2022/09/23 03:41:22;;;;;;;;;;;;;;;17.27;64.94;101317.72;1017286;29;687;-70
2022/09/23 03:42:15;;;;;;;;;;;;;;;17.27;65.09;101315.03;1016710;29;621;-71
2022/09/23 03:43:06;;;;;;;;;;;;;;;17.25;64.96;101310.75;1017539;29;765;-71
2022/09/23 03:43:57;;;;;;;;;;;;;;;17.25;65.40;101313.44;1016223;29;635;-71
2022/09/23 03:44:47;;;;;;;;;;;;;;;17.27;64.88;101319.56;1017253;29;811;-71
2022/09/23 03:45:38;;;;;;;;;;;;;;;17.25;65.22;101316.13;1016779;29;627;-71
2022/09/23 03:46:29;;;;;;;;;;;;;;;17.25;65.09;101314.28;1016670;29;1890;-71
2022/09/23 03:47:19;;;;;;;;;;;;;;;17.25;64.44;101316.13;1020014;29;572;-71
2022/09/23 03:48:10;;;;;;;;;;;;;;;17.25;64.73;101314.28;1020219;29;662;-71
2022/09/23 03:49:00;;;;;;;;;;;;;;;17.26;64.89;101310.63;1020613;29;662;-71
2022/09/23 03:49:51;;;;;;;;;;;;;;;17.26;64.90;101307.94;1020160;29;646;-70
2022/09/23 03:50:41;;;;;;;;;;;;;;;17.27;65.24;101303.41;1020043;29;964;-71
2022/09/23 03:51:31;;;;;;;;;;;;;;;17.29;65.23;101301.44;1020659;29;690;-71
2022/09/23 03:52:22;;;;;;;;;;;;;;;17.27;64.57;101303.41;1020673;29;675;-71
2022/09/23 03:53:13;;;;;;;;;;;;;;;17.28;64.67;101295.19;1016650;29;694;-71
2022/09/23 03:54:03;;;;;;;;;;;;;;;17.26;65.02;101297.16;1017256;29;689;-71
2022/09/23 03:54:53;;;;;;;;;;;;;;;17.21;64.81;101298.53;1016780;29;638;-71
2022/09/23 03:55:45;;;;;;;;;;;;;;;17.21;64.93;101303.91;1016297;29;644;-71
2022/09/23 03:56:36;;;;;;;;;;;;;;;17.23;64.49;101305.50;1016536;29;1168;-71
2022/09/23 03:57:26;;;;;;;;;;;;;;;17.24;65.12;101300.97;1016757;29;645;-71
2022/09/23 03:58:17;;;;;;;;;;;;;;;17.23;65.05;101304.63;1016302;29;659;-71
2022/09/23 03:59:07;;;;;;;;;;;;;;;17.25;64.61;101299.97;1016110;29;640;-71
2022/09/23 03:59:58;;;;;;;;;;;;;;;17.24;64.75;101298.25;1016759;29;670;-71
2022/09/23 04:00:48;;;;;;;;;;;;;;;17.24;64.66;101293.72;1016739;29;703;-72
2022/09/23 04:01:40;;;;;;;;;;;;;;;17.26;64.63;101296.28;1016762;29;647;-71
2022/09/23 04:02:31;;;;;;;;;;;;;;;17.25;64.42;101298.13;1016701;29;734;-71
2022/09/23 04:03:21;;;;;;;;;;;;;;;17.24;64.55;101299.13;1016618;29;576;-71
2022/09/23 04:04:12;;;;;;;;;;;;;;;17.26;64.54;101291.75;1016747;29;678;-72
2022/09/23 04:05:02;;;;;;;;;;;;;;;17.23;64.80;101296.56;1017312;29;604;-71
2022/09/23 04:05:52;;;;;;;;;;;;;;;17.23;64.50;101294.72;1016745;29;656;-71
2022/09/23 04:06:43;;;;;;;;;;;;;;;17.23;65.13;101293.84;1018348;29;1354;-71
2022/09/23 04:07:33;;;;;;;;;;;;;;;17.21;64.50;101288.59;1017028;29;837;-71
2022/09/23 04:08:24;;;;;;;;;;;;;;;17.22;64.40;101286.75;1016394;29;706;-71
2022/09/23 04:09:14;;;;;;;;;;;;;;;17.23;64.70;101297.41;1020058;29;619;-72
2022/09/23 04:10:04;;;;;;;;;;;;;;;17.22;64.57;101293.00;1020585;29;647;-72
2022/09/23 04:10:56;;;;;;;;;;;;;;;17.22;64.56;101292.16;1020656;29;651;-71
2022/09/23 04:11:46;;;;;;;;;;;;;;;17.19;64.60;101285.22;1020035;29;725;-71
2022/09/23 04:12:36;;;;;;;;;;;;;;;17.19;64.59;101295.13;1020172;29;686;-72
2022/09/23 04:13:27;;;;;;;;;;;;;;;17.22;64.90;101286.75;1020190;29;642;-71
2022/09/23 04:14:18;;;;;;;;;;;;;;;17.21;64.36;101279.66;1020524;29;559;-71
2022/09/23 04:15:09;;;;;;;;;;;;;;;17.19;65.03;101285.22;1020066;29;670;-70
2022/09/23 04:15:59;;;;;;;;;;;;;;;17.20;64.77;101284.19;1020491;29;694;-70
2022/09/23 04:16:49;;;;;;;;;;;;;;;17.22;64.36;101289.47;1021109;29;720;-70
2022/09/23 04:17:40;;;;;;;;;;;;;;;17.19;64.72;101284.34;1020618;29;659;-70
2022/09/23 04:18:31;;;;;;;;;;;;;;;17.22;64.73;101284.06;1020668;29;722;-70
2022/09/23 04:19:21;;;;;;;;;;;;;;;17.22;64.68;101281.38;1020527;29;711;-70
2022/09/23 04:20:12;;;;;;;;;;;;;;;17.20;64.20;101288.72;1020653;29;682;-71
2022/09/23 04:21:02;;;;;;;;;;;;;;;17.19;64.52;101287.91;1019758;29;1329;-71
2022/09/23 04:21:52;;;;;;;;;;;;;;;17.19;64.70;101281.66;1020651;29;682;-71
2022/09/23 04:22:43;;;;;;;;;;;;;;;17.19;64.68;101284.34;1020734;29;651;-70
2022/09/23 04:23:33;;;;;;;;;;;;;;;17.21;65.12;101276.97;1016796;29;671;-71
2022/09/23 04:24:24;;;;;;;;;;;;;;;17.22;64.20;101278.69;1016296;29;543;-72
2022/09/23 04:25:14;;;;;;;;;;;;;;;17.21;64.73;101282.34;1020298;29;967;-71
2022/09/23 04:26:05;;;;;;;;;;;;;;;17.20;64.77;101281.50;1020497;29;1961;-71
2022/09/23 04:26:55;;;;;;;;;;;;;;;17.21;64.12;101287.75;1020536;29;639;-73
2022/09/23 04:27:45;;;;;;;;;;;;;;;17.21;64.85;101285.06;1020573;29;765;-70